Time;durP1;ratioP1;P1;durP2;ratioP2;P2;SDS_P1;SDS_P2;PMS_P1;PMS_P2;Temp;Humidity;BMP_temperature;BMP_pressure;BME280_temperature;BME280_humidity;BME280_pressure;Samples;Min_cycle;Max_cycle;Signal;HPM_P1;HPM_P2
2023/08/01 00:00:43;;;;;;;2.40;2.20;;;;;;;22.22;70.99;94334.84;5070725;28;20248;-45
2023/08/01 00:03:11;;;;;;;2.47;2.28;;;;;;;22.22;71.02;94339.25;5070754;28;20200;-45
2023/08/01 00:05:38;;;;;;;4.60;2.50;;;;;;;22.19;70.91;94337.06;5070963;28;20183;-43
2023/08/01 00:08:05;;;;;;;2.30;2.10;;;;;;;22.16;70.83;94330.50;5070570;28;20230;-45
2023/08/01 00:10:32;;;;;;;2.85;2.20;;;;;;;22.17;70.90;94339.13;5070917;28;20210;-43
2023/08/01 00:12:59;;;;;;;2.97;2.33;;;;;;;22.17;70.95;94331.31;5070749;28;20190;-42
2023/08/01 00:15:25;;;;;;;2.40;2.20;;;;;;;22.17;71.15;94336.50;5070752;28;20186;-45
2023/08/01 00:17:52;;;;;;;2.42;2.22;;;;;;;22.15;71.07;94334.13;5070921;28;20183;-45
2023/08/01 00:20:20;;;;;;;2.67;2.35;;;;;;;22.15;71.11;94333.31;5070533;28;20198;-42
2023/08/01 00:22:47;;;;;;;2.47;2.28;;;;;;;22.13;71.25;94335.34;5070209;28;20187;-44
2023/08/01 00:25:14;;;;;;;2.15;2.00;;;;;;;22.14;71.25;94335.13;5070782;28;20190;-45
2023/08/01 00:27:41;;;;;;;3.17;2.45;;;;;;;22.14;70.93;94332.53;5070151;28;20228;-43
2023/08/01 00:30:09;;;;;;;2.30;2.10;;;;;;;22.11;70.92;94326.94;5069928;28;20291;-43
2023/08/01 00:32:36;;;;;;;3.20;2.15;;;;;;;22.04;71.09;94320.00;5070377;28;20248;-42
2023/08/01 00:35:03;;;;;;;2.30;2.10;;;;;;;22.06;71.03;94330.19;5070727;28;20636;-44
2023/08/01 00:37:31;;;;;;;3.22;2.40;;;;;;;22.04;71.54;94329.63;5070762;28;20178;-43
2023/08/01 00:39:58;;;;;;;3.88;2.45;;;;;;;22.01;71.55;94328.22;5069964;28;20201;-45
2023/08/01 00:42:24;;;;;;;2.97;2.13;;;;;;;22.05;71.18;94331.19;5070692;28;20186;-43
2023/08/01 00:44:53;;;;;;;2.55;2.35;;;;;;;22.04;71.53;94337.44;5069653;28;20194;-45
2023/08/01 00:47:20;;;;;;;3.10;2.30;;;;;;;22.04;71.23;94330.41;5070141;28;20206;-43
2023/08/01 00:49:47;;;;;;;2.25;2.10;;;;;;;22.03;71.34;94333.22;5069713;28;20201;-43
2023/08/01 00:52:14;;;;;;;2.30;2.10;;;;;;;22.02;71.30;94323.81;5070367;28;20546;-44
2023/08/01 00:54:42;;;;;;;2.47;2.28;;;;;;;22.05;71.25;94321.56;5069782;28;20202;-43
2023/08/01 00:57:10;;;;;;;2.40;2.20;;;;;;;22.05;71.24;94315.56;5069578;28;20186;-43
2023/08/01 00:59:37;;;;;;;3.15;2.20;;;;;;;22.05;71.31;94318.19;5069646;28;20280;-42
2023/08/01 01:02:04;;;;;;;3.45;2.30;;;;;;;22.05;71.27;94312.97;5069602;28;20679;-44
2023/08/01 01:04:31;;;;;;;2.10;1.90;;;;;;;22.06;71.20;94317.16;5069831;28;20209;-44
2023/08/01 01:07:01;;;;;;;1.98;1.88;;;;;;;22.09;70.95;94319.34;5069238;28;20807;-44
2023/08/01 01:09:31;;;;;;;2.53;2.33;;;;;;;22.08;70.99;94319.56;5069617;28;20193;-43
2023/08/01 01:12:00;;;;;;;2.75;2.28;;;;;;;22.03;71.25;94317.63;5069322;28;20194;-42
2023/08/01 01:14:27;;;;;;;3.33;2.08;;;;;;;22.05;71.29;94316.38;5070096;28;20632;-43
2023/08/01 01:16:54;;;;;;;4.07;1.98;;;;;;;22.09;70.99;94308.91;5069297;28;20630;-43
2023/08/01 01:19:21;;;;;;;2.78;2.47;;;;;;;22.10;70.98;94305.28;5069746;28;20562;-44
2023/08/01 01:21:49;;;;;;;2.65;2.22;;;;;;;22.10;70.96;94302.69;5069194;28;20190;-43
2023/08/01 01:24:18;;;;;;;4.57;2.25;;;;;;;22.12;70.80;94303.31;5069356;28;20282;-43
2023/08/01 01:26:47;;;;;;;2.60;2.40;;;;;;;22.09;70.93;94300.31;5069110;28;20197;-43
2023/08/01 01:29:14;;;;;;;2.63;2.42;;;;;;;21.98;71.13;94289.63;5069647;28;20230;-44
2023/08/01 01:31:42;;;;;;;4.97;2.30;;;;;;;22.03;71.08;94302.78;5068964;28;20694;-43
2023/08/01 01:34:10;;;;;;;4.40;2.20;;;;;;;22.00;71.02;94297.22;5069129;28;20198;-43
2023/08/01 01:36:36;;;;;;;2.17;1.90;;;;;;;22.01;71.11;94298.78;5069173;28;20276;-45
2023/08/01 01:39:05;;;;;;;2.53;2.33;;;;;;;22.00;71.13;94292.78;5069054;28;20194;-44
2023/08/01 01:41:31;;;;;;;2.17;2.05;;;;;;;22.01;70.96;94296.19;5068874;28;20650;-44
2023/08/01 01:43:58;;;;;;;2.33;2.22;;;;;;;21.95;70.89;94287.44;5068994;28;20670;-44
2023/08/01 01:46:25;;;;;;;3.03;2.13;;;;;;;21.99;70.79;94290.41;5069175;28;20201;-44
2023/08/01 01:48:52;;;;;;;2.72;2.53;;;;;;;21.98;70.34;94289.63;5068803;28;20689;-44
2023/08/01 01:51:18;;;;;;;3.97;2.30;;;;;;;21.94;70.23;94296.28;5068689;28;20198;-43
2023/08/01 01:53:45;;;;;;;2.40;2.20;;;;;;;21.92;70.04;94293.06;5068827;28;20213;-44
2023/08/01 01:56:13;;;;;;;4.40;2.65;;;;;;;21.90;70.25;94296.94;5069267;28;20205;-44
2023/08/01 01:58:40;;;;;;;3.83;2.55;;;;;;;21.86;70.08;94306.97;5069184;28;20190;-44
2023/08/01 02:01:07;;;;;;;4.55;2.58;;;;;;;21.82;70.26;94297.22;5069134;28;20202;-44
2023/08/01 02:03:34;;;;;;;2.10;2.00;;;;;;;21.77;70.88;94306.47;5068829;28;20212;-46
2023/08/01 02:06:00;;;;;;;3.35;2.20;;;;;;;21.78;70.78;94307.25;5069228;28;20190;-43
2023/08/01 02:08:27;;;;;;;3.42;2.22;;;;;;;21.73;70.92;94302.69;5069183;28;20218;-45
2023/08/01 02:10:55;;;;;;;3.78;2.80;;;;;;;21.71;70.79;94304.72;5069692;28;20178;-44
2023/08/01 02:13:23;;;;;;;3.67;2.63;;;;;;;21.69;70.67;94303.34;5069554;28;20205;-43
2023/08/01 02:15:49;;;;;;;4.32;2.35;;;;;;;21.66;70.70;94296.75;5069149;28;20256;-44
2023/08/01 02:18:16;;;;;;;2.58;2.20;;;;;;;21.64;70.59;94300.59;5068846;28;20205;-42
2023/08/01 02:20:43;;;;;;;2.70;2.50;;;;;;;21.60;70.81;94294.25;5068804;28;20194;-45
2023/08/01 02:23:10;;;;;;;3.40;2.30;;;;;;;21.57;71.00;94299.88;5069247;28;20182;-44
2023/08/01 02:25:39;;;;;;;4.13;2.28;;;;;;;21.53;71.33;94299.50;5068844;28;20217;-44
2023/08/01 02:28:06;;;;;;;2.40;2.20;;;;;;;21.47;71.50;94301.16;5069221;28;20317;-44
2023/08/01 02:30:35;;;;;;;3.40;2.20;;;;;;;21.45;71.31;94297.16;5069725;28;20636;-44
2023/08/01 02:33:02;;;;;;;2.83;2.50;;;;;;;21.28;71.38;94278.66;5068875;28;20194;-42
2023/08/01 02:35:29;;;;;;;4.20;2.38;;;;;;;21.41;71.64;94296.78;5068479;28;20731;-44
2023/08/01 02:37:55;;;;;;;6.18;2.47;;;;;;;21.26;71.33;94276.28;5068820;28;20202;-44
2023/08/01 02:40:22;;;;;;;2.90;2.42;;;;;;;21.37;71.63;94295.63;5068770;28;20195;-44
2023/08/01 02:42:49;;;;;;;2.60;2.22;;;;;;;21.36;71.58;94294.03;5068723;28;20247;-45
2023/08/01 02:45:16;;;;;;;6.55;2.83;;;;;;;21.35;71.60;94295.06;5068794;28;20563;-44
2023/08/01 02:47:44;;;;;;;2.08;1.95;;;;;;;21.34;71.57;94297.88;5068670;28;20214;-45
2023/08/01 02:50:11;;;;;;;4.00;2.40;;;;;;;21.32;71.49;94299.88;5068385;28;20194;-45
2023/08/01 02:52:38;;;;;;;2.45;2.25;;;;;;;21.30;71.54;94294.88;5068765;28;20197;-47
2023/08/01 02:55:05;;;;;;;3.28;2.53;;;;;;;21.28;71.62;94291.69;5067985;28;20191;-43
2023/08/01 02:57:32;;;;;;;3.88;2.45;;;;;;;21.16;71.74;94277.81;5068735;28;20186;-44
2023/08/01 02:59:59;;;;;;;2.20;2.00;;;;;;;21.22;71.48;94295.13;5068515;28;20248;-43
2023/08/01 03:02:27;;;;;;;3.10;2.50;;;;;;;21.14;71.63;94298.00;5068777;28;20206;-43
2023/08/01 03:04:55;;;;;;;3.03;2.70;;;;;;;21.09;71.87;94292.66;5072152;28;20190;-44
2023/08/01 03:07:22;;;;;;;2.50;2.28;;;;;;;20.99;71.63;94293.94;5071546;28;20658;-42
2023/08/01 03:09:49;;;;;;;4.63;2.55;;;;;;;21.03;71.22;94300.28;5071722;28;20226;-45
2023/08/01 03:12:16;;;;;;;3.85;2.85;;;;;;;20.97;71.19;94295.13;5071548;28;20208;-43
2023/08/01 03:14:44;;;;;;;4.63;2.67;;;;;;;20.91;71.40;94283.00;5072109;28;20198;-42
2023/08/01 03:17:11;;;;;;;4.18;2.83;;;;;;;20.91;71.39;94293.38;5071643;28;20198;-43
2023/08/01 03:19:39;;;;;;;6.80;2.47;;;;;;;20.92;71.32;94298.38;5071902;28;20684;-43
2023/08/01 03:22:07;;;;;;;5.45;2.70;;;;;;;20.89;71.28;94303.19;5071364;28;20200;-43
2023/08/01 03:24:34;;;;;;;3.70;2.67;;;;;;;20.84;71.25;94297.81;5072199;28;20183;-44
2023/08/01 03:27:01;;;;;;;2.75;2.50;;;;;;;20.80;71.03;94307.84;5071818;28;20638;-43
2023/08/01 03:29:27;;;;;;;3.45;2.60;;;;;;;20.80;71.14;94303.44;5071296;28;20371;-44
2023/08/01 03:31:54;;;;;;;3.80;3.20;;;;;;;20.79;70.88;94307.06;5071222;28;20191;-51
2023/08/01 03:34:21;;;;;;;3.78;2.67;;;;;;;20.75;70.70;94305.09;5071392;28;20562;-43
2023/08/01 03:36:48;;;;;;;2.97;2.60;;;;;;;20.71;70.76;94309.09;5071150;28;20186;-43
2023/08/01 03:39:16;;;;;;;3.22;2.30;;;;;;;20.70;71.00;94304.91;5071467;28;20201;-43
2023/08/01 03:41:42;;;;;;;3.13;2.42;;;;;;;20.68;70.91;94302.53;5071373;28;20182;-43
2023/08/01 03:44:09;;;;;;;4.07;2.50;;;;;;;20.67;70.94;94307.94;5070980;28;20190;-42
2023/08/01 03:46:36;;;;;;;2.80;2.60;;;;;;;20.64;70.97;94314.34;5071546;28;20191;-49
2023/08/01 03:49:03;;;;;;;5.13;2.90;;;;;;;20.62;70.85;94305.97;5070982;28;20218;-44
2023/08/01 03:51:30;;;;;;;2.92;2.40;;;;;;;20.62;70.83;94305.97;5071092;28;20641;-43
2023/08/01 03:53:57;;;;;;;2.75;2.55;;;;;;;20.66;70.52;94309.72;5070759;28;20261;-44
2023/08/01 03:56:25;;;;;;;3.20;2.47;;;;;;;20.69;70.52;94311.91;5069776;28;20662;-43
2023/08/01 03:58:52;;;;;;;4.63;2.95;;;;;;;20.64;70.69;94316.97;5070568;28;20205;-45
2023/08/01 04:01:19;;;;;;;4.82;2.90;;;;;;;20.56;71.06;94306.81;5069829;28;20194;-44
2023/08/01 04:03:47;;;;;;;6.85;3.42;;;;;;;20.58;71.19;94312.56;5070559;28;20752;-43
2023/08/01 04:06:16;;;;;;;5.03;3.60;;;;;;;20.63;71.33;94312.75;5070669;28;20190;-43
2023/08/01 04:08:43;;;;;;;6.30;3.60;;;;;;;20.71;71.39;94319.50;5070292;28;20222;-43
2023/08/01 04:11:11;;;;;;;10.65;3.47;;;;;;;20.65;72.01;94305.56;5071868;28;20554;-44
2023/08/01 04:13:39;;;;;;;3.95;3.00;;;;;;;20.67;72.64;94308.72;5070690;28;20601;-44
2023/08/01 04:16:06;;;;;;;3.92;2.65;;;;;;;20.64;72.92;94319.56;5069986;28;20194;-42
2023/08/01 04:18:34;;;;;;;4.75;3.30;;;;;;;20.63;73.46;94320.53;5071128;28;20193;-45
2023/08/01 04:21:02;;;;;;;4.20;3.03;;;;;;;20.61;73.73;94317.38;5070542;28;20198;-46
2023/08/01 04:23:29;;;;;;;5.13;3.20;;;;;;;20.57;73.99;94323.97;5070367;28;20194;-44
2023/08/01 04:25:57;;;;;;;4.55;3.03;;;;;;;20.52;74.47;94329.00;5070890;28;20580;-49
2023/08/01 04:28:24;;;;;;;5.40;2.97;;;;;;;20.49;75.02;94329.41;5070210;28;20716;-44
2023/08/01 04:30:53;;;;;;;3.53;3.22;;;;;;;20.26;74.86;94309.91;5069963;28;20226;-43
2023/08/01 04:33:20;;;;;;;3.15;2.85;;;;;;;20.46;75.12;94324.59;5070197;28;20566;-44
2023/08/01 04:35:49;;;;;;;4.55;3.17;;;;;;;20.47;74.94;94319.22;5070071;28;20197;-43
2023/08/01 04:38:15;;;;;;;8.48;2.97;;;;;;;20.50;74.55;94311.00;5070489;28;20193;-45
2023/08/01 04:40:42;;;;;;;4.25;3.03;;;;;;;20.59;74.38;94327.16;5069827;28;20646;-42
2023/08/01 04:43:10;;;;;;;3.78;3.20;;;;;;;20.59;74.87;94327.16;5070229;28;20205;-44
2023/08/01 04:45:37;;;;;;;5.78;3.40;;;;;;;20.53;75.07;94318.41;5070002;28;20232;-44
2023/08/01 04:48:06;;;;;;;6.95;3.22;;;;;;;20.58;75.11;94322.16;5069956;28;20202;-44
2023/08/01 04:50:33;;;;;;;6.90;2.72;;;;;;;20.53;75.21;94318.41;5069747;28;20193;-43
2023/08/01 04:52:59;;;;;;;7.80;3.42;;;;;;;20.47;75.23;94303.63;5069990;28;20191;-43
2023/08/01 04:55:26;;;;;;;8.77;3.43;;;;;;;20.56;74.86;94309.41;5069923;28;20190;-44
2023/08/01 04:57:53;;;;;;;7.00;3.38;;;;;;;20.67;75.02;94328.72;5069647;28;20201;-44
2023/08/01 05:00:20;;;;;;;6.05;3.42;;;;;;;20.68;75.08;94322.50;5069820;28;20626;-45
2023/08/01 05:02:47;;;;;;;9.15;2.92;;;;;;;20.76;75.10;94319.66;5069759;28;20252;-43
2023/08/01 05:05:16;;;;;;;8.00;3.25;;;;;;;20.95;74.59;94317.97;5069836;28;20212;-42
2023/08/01 05:07:42;;;;;;;3.47;3.13;;;;;;;21.20;73.54;94315.34;5069859;28;20232;-43
2023/08/01 05:10:10;;;;;;;4.53;3.58;;;;;;;21.56;71.77;94325.09;5069702;28;20233;-45
2023/08/01 05:12:37;;;;;;;5.20;3.47;;;;;;;21.78;70.56;94318.47;5069940;28;20205;-44
2023/08/01 05:15:05;;;;;;;6.35;3.85;;;;;;;21.96;69.36;94315.06;5070070;28;20280;-44
2023/08/01 05:17:32;;;;;;;5.57;3.65;;;;;;;22.27;67.92;94324.56;5069500;28;20190;-44
2023/08/01 05:19:59;;;;;;;7.10;3.28;;;;;;;22.47;67.29;94329.53;5069629;28;20588;-46
2023/08/01 05:22:28;;;;;;;9.32;3.15;;;;;;;22.58;66.43;94314.16;5069788;28;20286;-45
2023/08/01 05:24:55;;;;;;;7.20;3.30;;;;;;;22.80;65.34;94328.31;5069306;28;20255;-45
2023/08/01 05:27:22;;;;;;;4.95;3.15;;;;;;;23.03;64.03;94325.00;5069636;28;20299;-44
2023/08/01 05:29:49;;;;;;;3.08;2.88;;;;;;;23.33;63.11;94335.34;5069478;28;20255;-47
2023/08/01 05:32:16;;;;;;;6.28;3.38;;;;;;;23.68;61.59;94330.19;5069871;28;20283;-45
2023/08/01 05:34:43;;;;;;;7.32;3.20;;;;;;;23.95;60.39;94337.53;5069419;28;20685;-44
2023/08/01 05:37:10;;;;;;;3.40;2.83;;;;;;;24.00;59.74;94333.22;5069775;28;20193;-45
2023/08/01 05:39:38;;;;;;;4.95;3.60;;;;;;;24.28;59.30;94339.53;5069210;28;20205;-45
2023/08/01 05:42:08;;;;;;;6.20;3.17;;;;;;;24.26;58.99;94316.22;5069457;28;20197;-43
2023/08/01 05:44:35;;;;;;;9.98;4.00;;;;;;;24.46;58.08;94312.47;5069202;28;20194;-45
2023/08/01 05:47:02;;;;;;;6.63;3.92;;;;;;;24.78;56.99;94331.06;5069469;28;20215;-45
2023/08/01 05:49:29;;;;;;;3.42;3.08;;;;;;;24.87;57.09;94328.88;5068024;28;20234;-45
2023/08/01 05:51:56;;;;;;;4.85;3.22;;;;;;;25.07;56.06;94329.22;5067929;28;20581;-43
2023/08/01 05:54:23;;;;;;;6.28;3.65;;;;;;;25.22;55.86;94316.44;5068964;28;20201;-43
2023/08/01 05:56:51;;;;;;;7.75;3.28;;;;;;;25.50;54.84;94328.63;5069265;28;20205;-43
2023/08/01 05:59:18;;;;;;;7.28;3.10;;;;;;;25.52;54.55;94329.19;5069052;28;20213;-43
2023/08/01 06:01:45;;;;;;;4.68;3.00;;;;;;;25.50;53.56;94320.78;5069305;28;20276;-43
2023/08/01 06:04:11;;;;;;;6.38;2.95;;;;;;;25.60;53.49;94319.34;5068875;28;20650;-45
2023/08/01 06:06:38;;;;;;;5.22;3.03;;;;;;;25.94;53.35;94320.88;5069515;28;20190;-44
2023/08/01 06:09:05;;;;;;;4.93;2.72;;;;;;;26.27;51.64;94314.75;5069473;28;20206;-45
2023/08/01 06:11:33;;;;;;;3.63;3.08;;;;;;;26.57;49.81;94318.00;5069078;28;20198;-44
2023/08/01 06:14:01;;;;;;;6.35;2.60;;;;;;;26.81;49.71;94308.00;5069369;28;20284;-44
2023/08/01 06:16:28;;;;;;;3.35;2.33;;;;;;;26.98;49.73;94319.19;5069009;28;20193;-44
2023/08/01 06:18:55;;;;;;;4.50;2.50;;;;;;;27.08;49.68;94308.78;5069824;28;20202;-45
2023/08/01 06:21:21;;;;;;;2.33;2.13;;;;;;;27.34;46.25;94311.66;5069439;28;20190;-45
2023/08/01 06:23:48;;;;;;;5.78;2.35;;;;;;;27.34;46.82;94312.44;5069165;28;20186;-44
2023/08/01 06:26:16;;;;;;;4.00;2.30;;;;;;;27.70;46.04;94317.94;5069119;28;20189;-44
2023/08/01 06:28:42;;;;;;;4.05;2.50;;;;;;;27.91;45.71;94318.88;5068851;28;20661;-44
2023/08/01 06:31:11;;;;;;;7.43;2.47;;;;;;;28.20;45.48;94317.44;5068635;28;20225;-45
2023/08/01 06:33:37;;;;;;;2.65;2.33;;;;;;;28.48;45.35;94312.84;5068975;28;20195;-44
2023/08/01 06:36:06;;;;;;;3.88;2.28;;;;;;;28.48;44.08;94276.00;5068801;28;20186;-44
2023/08/01 06:38:33;;;;;;;5.45;2.72;;;;;;;28.70;44.24;94308.16;5072979;28;20205;-45
2023/08/01 06:40:59;;;;;;;5.07;2.35;;;;;;;28.60;44.24;94300.25;5072321;28;20198;-44
2023/08/01 06:43:26;;;;;;;2.60;2.40;;;;;;;28.72;44.12;94313.19;5072705;28;20197;-44
2023/08/01 06:45:54;;;;;;;4.65;2.42;;;;;;;28.57;44.83;94306.03;5072667;28;20195;-44
2023/08/01 06:48:22;;;;;;;5.07;2.70;;;;;;;28.82;44.12;94317.66;5072606;28;20194;-44
2023/08/01 06:50:48;;;;;;;4.45;2.70;;;;;;;29.04;43.20;94309.56;5072630;28;20214;-45
2023/08/01 06:53:16;;;;;;;4.50;2.50;;;;;;;29.03;42.83;94306.13;5072487;28;20186;-44
2023/08/01 06:55:42;;;;;;;2.53;2.33;;;;;;;28.79;43.28;94310.28;5072781;28;20197;-45
2023/08/01 06:58:09;;;;;;;4.10;2.40;;;;;;;28.90;43.55;94307.41;5072031;28;20190;-45
2023/08/01 07:00:36;;;;;;;5.28;2.30;;;;;;;29.21;42.79;94302.97;5072465;28;20191;-44
2023/08/01 07:03:03;;;;;;;5.07;2.45;;;;;;;29.29;42.64;94314.84;5072336;28;20200;-44
2023/08/01 07:05:31;;;;;;;6.20;2.60;;;;;;;29.34;42.48;94312.19;5072559;28;20190;-46
2023/08/01 07:07:58;;;;;;;6.05;2.42;;;;;;;29.44;42.10;94301.66;5071814;28;20760;-43
2023/08/01 07:10:25;;;;;;;2.72;2.53;;;;;;;29.43;42.75;94307.97;5072016;28;20245;-44
2023/08/01 07:12:52;;;;;;;5.15;2.92;;;;;;;29.38;42.72;94302.72;5071825;28;20670;-45
2023/08/01 07:15:19;;;;;;;4.47;2.80;;;;;;;29.03;42.63;94245.56;5072058;28;20601;-43
2023/08/01 07:17:45;;;;;;;4.70;2.47;;;;;;;29.61;43.02;94303.25;5072123;28;20202;-44
2023/08/01 07:20:12;;;;;;;5.20;2.75;;;;;;;29.72;42.72;94295.06;5071916;28;20600;-45
2023/08/01 07:22:41;;;;;;;4.10;2.30;;;;;;;29.89;42.12;94301.88;5072004;28;20197;-45
2023/08/01 07:25:08;;;;;;;3.28;2.60;;;;;;;30.00;42.08;94293.66;5071697;28;20621;-45
2023/08/01 07:27:37;;;;;;;4.55;2.72;;;;;;;30.08;41.42;94299.44;5071835;28;20190;-46
2023/08/01 07:30:04;;;;;;;4.97;2.63;;;;;;;30.36;41.15;94290.13;5071388;28;20339;-45
2023/08/01 07:32:31;;;;;;;5.85;2.50;;;;;;;30.67;40.75;94283.63;5071837;28;20197;-45
2023/08/01 07:34:58;;;;;;;2.95;2.50;;;;;;;30.89;40.80;94285.88;5071530;28;20206;-44
2023/08/01 07:37:28;;;;;;;4.70;2.85;;;;;;;31.12;40.80;94281.75;5071727;28;20201;-44
2023/08/01 07:39:56;;;;;;;3.67;2.47;;;;;;;31.11;40.81;94282.03;5071501;28;20198;-44
2023/08/01 07:42:23;;;;;;;5.05;2.78;;;;;;;30.90;41.08;94281.41;5071554;28;20194;-45
2023/08/01 07:44:49;;;;;;;3.13;2.70;;;;;;;30.93;41.31;94288.78;5071270;28;20222;-44
2023/08/01 07:47:16;;;;;;;4.90;2.92;;;;;;;31.16;40.80;94285.41;5071435;28;20190;-43
2023/08/01 07:49:43;;;;;;;4.15;2.60;;;;;;;31.40;40.56;94282.88;5070737;28;20210;-44
2023/08/01 07:52:10;;;;;;;5.28;2.25;;;;;;;31.59;40.06;94290.13;5071439;28;20194;-44
2023/08/01 07:54:37;;;;;;;2.90;2.58;;;;;;;31.81;39.98;94290.41;5071032;28;20201;-44
2023/08/01 07:57:06;;;;;;;7.85;2.47;;;;;;;31.92;39.88;94286.63;5071263;28;20178;-44
2023/08/01 07:59:33;;;;;;;4.05;2.83;;;;;;;32.16;39.71;94289.25;5071033;28;20190;-45
2023/08/01 08:02:01;;;;;;;4.88;2.75;;;;;;;32.29;38.73;94276.41;5071368;28;20187;-45
2023/08/01 08:04:30;;;;;;;3.80;2.88;;;;;;;32.25;38.72;94278.81;5070966;28;20198;-44
2023/08/01 08:06:59;;;;;;;6.22;3.28;;;;;;;32.11;38.93;94278.72;5070805;28;20662;-43
2023/08/01 08:09:27;;;;;;;5.13;2.78;;;;;;;31.73;39.33;94278.59;5070992;28;20218;-46
2023/08/01 08:11:53;;;;;;;4.75;2.47;;;;;;;31.63;39.97;94276.06;5070965;28;20198;-45
2023/08/01 08:14:23;;;;;;;6.07;2.95;;;;;;;31.29;39.60;94219.81;5070719;28;20251;-43
2023/08/01 08:16:49;;;;;;;6.03;3.03;;;;;;;31.55;39.63;94271.38;5071258;28;20186;-45
2023/08/01 08:19:16;;;;;;;3.15;2.85;;;;;;;31.27;40.20;94265.00;5070798;28;20573;-45
2023/08/01 08:21:43;;;;;;;4.88;2.75;;;;;;;31.32;40.10;94258.91;5070749;28;20260;-44
2023/08/01 08:24:10;;;;;;;3.00;2.53;;;;;;;31.29;40.42;94260.25;5070729;28;20193;-45
2023/08/01 08:26:39;;;;;;;7.63;3.30;;;;;;;31.48;40.28;94265.63;5070732;28;20198;-43
2023/08/01 08:29:06;;;;;;;2.78;2.35;;;;;;;31.61;39.31;94243.03;5070917;28;20244;-43
2023/08/01 08:31:34;;;;;;;3.38;2.58;;;;;;;31.84;39.50;94249.44;5069983;28;20241;-43
2023/08/01 08:34:01;;;;;;;5.35;2.70;;;;;;;32.05;39.32;94253.41;5070828;28;20201;-45
2023/08/01 08:36:28;;;;;;;6.38;2.88;;;;;;;32.08;39.40;94252.88;5070103;28;20198;-44
2023/08/01 08:38:54;;;;;;;5.38;2.80;;;;;;;31.87;39.42;94251.53;5070443;28;20189;-45
2023/08/01 08:41:25;;;;;;;3.97;2.83;;;;;;;31.73;39.87;94241.56;5070282;28;20202;-44
2023/08/01 08:43:56;;;;;;;4.53;2.88;;;;;;;31.69;40.10;94237.13;5070112;28;20190;-44
2023/08/01 08:46:27;;;;;;;3.22;2.88;;;;;;;31.57;39.78;94244.66;5070409;28;20564;-42
2023/08/01 08:48:56;;;;;;;3.95;2.78;;;;;;;31.40;40.42;94237.97;5070407;28;20194;-44
2023/08/01 08:51:23;;;;;;;5.93;2.97;;;;;;;31.34;40.66;94244.34;5070221;28;20225;-47
2023/08/01 08:53:54;;;;;;;7.40;3.22;;;;;;;31.42;39.97;94233.16;5070104;28;20197;-45
2023/08/01 08:56:22;;;;;;;8.73;3.20;;;;;;;31.37;40.27;94235.06;5070148;28;20193;-46
2023/08/01 08:58:49;;;;;;;6.00;3.20;;;;;;;31.24;40.34;94229.34;5069834;28;20650;-44
2023/08/01 09:01:16;;;;;;;7.28;3.33;;;;;;;31.13;40.46;94229.69;5068948;28;20561;-43
2023/08/01 09:03:44;;;;;;;3.33;2.60;;;;;;;31.12;40.44;94222.84;5069956;28;20669;-49
2023/08/01 09:06:15;;;;;;;7.80;2.63;;;;;;;31.04;40.78;94218.16;5069846;28;20198;-44
2023/08/01 09:08:50;;;;;;;4.47;3.05;;;;;;;30.99;41.08;94219.00;5069599;28;20198;-44
2023/08/01 09:11:17;;;;;;;5.38;3.17;;;;;;;31.10;40.84;94217.84;5069903;28;20300;-46
2023/08/01 09:13:44;;;;;;;4.75;3.22;;;;;;;31.22;40.54;94191.06;5069534;28;20205;-43
2023/08/01 09:16:12;;;;;;;6.28;3.00;;;;;;;31.43;40.68;94207.50;5069681;28;20681;-46
2023/08/01 09:18:48;;;;;;;4.45;3.22;;;;;;;31.44;40.25;94206.47;5069583;28;20197;-44
2023/08/01 09:21:19;;;;;;;4.50;3.00;;;;;;;31.49;40.28;94201.13;5069653;28;20185;-44
2023/08/01 09:23:45;;;;;;;5.13;2.65;;;;;;;31.57;39.96;94205.81;5069602;28;20273;-45
2023/08/01 09:26:15;;;;;;;4.60;2.88;;;;;;;31.42;39.92;94200.66;5069586;28;20194;-45
2023/08/01 09:28:42;;;;;;;3.35;2.95;;;;;;;31.25;40.12;94206.34;5069639;28;20194;-44
2023/08/01 09:31:12;;;;;;;4.85;3.28;;;;;;;31.21;40.82;94205.31;5069380;28;20230;-44
2023/08/01 09:33:40;;;;;;;6.38;3.33;;;;;;;31.17;40.30;94189.25;5069278;28;20225;-46
2023/08/01 09:36:08;;;;;;;3.47;2.70;;;;;;;30.88;40.84;94147.00;5069647;28;20236;-43
2023/08/01 09:38:37;;;;;;;4.90;2.88;;;;;;;31.39;40.97;94202.03;5069393;28;20343;-44
2023/08/01 09:41:05;;;;;;;3.20;2.80;;;;;;;31.34;40.42;94202.06;5069592;28;20228;-44
2023/08/01 09:43:35;;;;;;;4.25;2.88;;;;;;;31.17;40.53;94193.75;5069272;28;20190;-44
2023/08/01 09:46:02;;;;;;;7.40;3.00;;;;;;;31.11;40.73;94189.56;5069576;28;20355;-43
2023/08/01 09:48:31;;;;;;;3.67;3.10;;;;;;;31.25;40.99;94187.84;5069208;28;20194;-45
2023/08/01 09:51:08;;;;;;;3.80;3.00;;;;;;;31.26;40.80;94184.13;5069685;28;20209;-44
2023/08/01 09:53:36;;;;;;;4.28;2.78;;;;;;;31.16;40.90;94182.38;5069188;28;20599;-43
2023/08/01 09:56:03;;;;;;;4.50;3.15;;;;;;;31.16;41.13;94182.38;5069406;28;20187;-45
2023/08/01 09:58:33;;;;;;;6.35;3.08;;;;;;;31.17;41.02;94172.59;5069082;28;20201;-42
2023/08/01 10:01:01;;;;;;;7.95;3.67;;;;;;;31.22;41.11;94168.06;5069703;28;20260;-44
2023/08/01 10:03:29;;;;;;;7.32;4.00;;;;;;;31.39;40.88;94167.66;5069409;28;20194;-43
2023/08/01 10:05:56;;;;;;;3.95;3.47;;;;;;;31.38;39.99;94146.78;5069568;28;20532;-44
2023/08/01 10:08:24;;;;;;;5.03;3.60;;;;;;;31.38;40.20;94139.66;5069652;28;20320;-45
2023/08/01 10:10:52;;;;;;;5.97;3.40;;;;;;;31.48;40.50;94147.47;5068915;28;20214;-44
2023/08/01 10:13:24;;;;;;;5.95;3.30;;;;;;;31.50;40.83;94152.47;5072847;28;20194;-44
2023/08/01 10:15:51;;;;;;;4.28;3.05;;;;;;;31.60;40.47;94146.28;5073065;28;20189;-45
2023/08/01 10:18:18;;;;;;;5.10;3.55;;;;;;;31.68;39.75;94141.16;5073145;28;20194;-45
2023/08/01 10:20:45;;;;;;;5.30;3.42;;;;;;;31.69;40.73;94139.28;5072948;28;20703;-44
2023/08/01 10:23:13;;;;;;;5.40;3.22;;;;;;;31.65;39.72;94143.56;5072885;28;20662;-44
2023/08/01 10:25:40;;;;;;;5.40;3.42;;;;;;;31.54;40.02;94136.84;5073221;28;20210;-44
2023/08/01 10:28:09;;;;;;;5.35;3.38;;;;;;;31.51;40.12;94132.09;5073040;28;20552;-44
2023/08/01 10:30:35;;;;;;;5.78;3.58;;;;;;;31.51;40.37;94130.25;5072471;28;20240;-44
2023/08/01 10:33:02;;;;;;;5.65;3.40;;;;;;;31.23;40.82;94129.22;5072834;28;20191;-43
2023/08/01 10:35:33;;;;;;;4.20;3.33;;;;;;;31.08;40.60;94124.88;5072398;28;20257;-44
2023/08/01 10:38:06;;;;;;;5.15;3.30;;;;;;;31.01;41.02;94124.44;5072729;28;20183;-45
2023/08/01 10:40:37;;;;;;;5.20;3.90;;;;;;;30.75;41.50;94121.25;5072538;28;21066;-43
2023/08/01 10:43:04;;;;;;;5.30;3.30;;;;;;;30.55;41.46;94116.09;5072847;28;20191;-44
2023/08/01 10:45:32;;;;;;;4.53;3.40;;;;;;;30.29;41.37;94102.31;5072242;28;20658;-44
2023/08/01 10:48:09;;;;;;;6.55;3.60;;;;;;;30.19;42.37;94114.53;5072710;28;20327;-44
2023/08/01 10:50:36;;;;;;;5.07;2.88;;;;;;;30.17;42.36;94100.00;5072076;28;20228;-43
2023/08/01 10:53:05;;;;;;;3.65;3.35;;;;;;;30.26;41.53;94103.63;5072646;28;20194;-44
2023/08/01 10:55:45;;;;;;;5.78;2.88;;;;;;;30.28;40.59;94096.25;5072222;28;20274;-42
2023/08/01 10:58:13;;;;;;;4.97;2.83;;;;;;;30.19;41.04;94103.97;5072035;28;20737;-43
2023/08/01 11:00:43;;;;;;;7.30;3.00;;;;;;;30.33;41.06;94098.06;5072258;28;20614;-43
2023/08/01 11:03:10;;;;;;;6.05;2.72;;;;;;;30.53;38.40;94092.63;5072387;28;20190;-43
2023/08/01 11:05:37;;;;;;;2.40;2.17;;;;;;;30.68;35.65;94089.06;5072422;28;20233;-44
2023/08/01 11:08:05;;;;;;;2.33;2.13;;;;;;;30.77;35.01;94081.34;5072371;28;20190;-44
2023/08/01 11:10:33;;;;;;;2.75;2.55;;;;;;;30.86;34.80;94083.09;5071698;28;20287;-45
2023/08/01 11:13:00;;;;;;;3.45;2.70;;;;;;;30.93;34.67;94073.00;5072104;28;20650;-44
2023/08/01 11:15:27;;;;;;;3.25;2.08;;;;;;;31.12;33.00;94078.34;5071924;28;20208;-44
2023/08/01 11:17:56;;;;;;;2.60;2.40;;;;;;;31.10;32.73;94064.63;5072174;28;20673;-44
2023/08/01 11:20:25;;;;;;;3.35;3.05;;;;;;;31.12;32.71;94069.63;5072090;28;20198;-44
2023/08/01 11:22:54;;;;;;;5.55;2.55;;;;;;;31.10;33.22;94053.28;5071501;28;20194;-46
2023/08/01 11:25:31;;;;;;;2.92;2.17;;;;;;;31.23;33.24;94057.88;5072029;28;20183;-44
2023/08/01 11:27:58;;;;;;;2.75;2.40;;;;;;;31.29;33.57;94059.41;5072106;28;20277;-44
2023/08/01 11:30:32;;;;;;;2.35;2.15;;;;;;;31.44;33.28;94051.31;5071856;28;20238;-44
2023/08/01 11:33:01;;;;;;;3.25;2.45;;;;;;;31.57;32.24;94041.91;5072014;28;20582;-43
2023/08/01 11:35:28;;;;;;;8.27;2.25;;;;;;;31.66;31.92;94049.97;5071749;28;20200;-44